createdAt,value
2022-12-08T00:02:57.837Z,89
2022-12-08T00:05:01.247Z,89
2022-12-08T00:07:00.013Z,88
2022-12-08T00:08:59.100Z,89
2022-12-08T00:10:57.682Z,89
2022-12-08T00:13:00.361Z,89
2022-12-08T00:14:56.294Z,89
2022-12-08T00:16:57.495Z,89
2022-12-08T00:19:00.820Z,89
2022-12-08T00:20:59.947Z,89
2022-12-08T00:22:56.031Z,89
2022-12-08T00:26:59.116Z,89
2022-12-08T00:28:59.543Z,89
2022-12-08T00:31:00.428Z,89
2022-12-08T00:32:57.758Z,89
2022-12-08T00:34:57.993Z,89
2022-12-08T00:37:00.341Z,89
2022-12-08T00:38:57.572Z,89
2022-12-08T00:40:57.496Z,89
2022-12-08T00:42:59.456Z,89
2022-12-08T00:45:00.859Z,89
2022-12-08T00:46:57.230Z,89
2022-12-08T00:50:57.436Z,89
2022-12-08T00:52:58.163Z,89
2022-12-08T00:57:00.654Z,89
2022-12-08T00:58:57.539Z,89
2022-12-08T01:02:59.843Z,89
2022-12-08T01:04:57.933Z,89
2022-12-08T01:07:00.378Z,89
2022-12-08T01:09:00.683Z,89
2022-12-08T01:10:57.549Z,89
2022-12-08T01:14:56.859Z,89
2022-12-08T01:16:57.060Z,89
2022-12-08T01:18:59.769Z,89
2022-12-08T01:20:54.590Z,89
2022-12-08T01:22:57.573Z,89
2022-12-08T01:26:57.304Z,89
2022-12-08T01:29:04.211Z,89
2022-12-08T01:31:00.381Z,89
2022-12-08T01:33:00.733Z,89
2022-12-08T01:35:00.489Z,89
2022-12-08T01:36:59.297Z,89
2022-12-08T01:38:57.515Z,89
2022-12-08T01:40:56.063Z,89
2022-12-08T01:44:57.052Z,90
2022-12-08T01:46:57.531Z,90
2022-12-08T01:51:00.746Z,90
2022-12-08T01:53:00.898Z,90
2022-12-08T01:55:00.334Z,90
2022-12-08T01:56:59.832Z,89
2022-12-08T01:59:00.596Z,89
2022-12-08T02:00:58.002Z,89
2022-12-08T02:03:00.923Z,89
2022-12-08T02:04:57.581Z,89
2022-12-08T02:07:03.668Z,89
2022-12-08T02:08:54.611Z,89
2022-12-08T02:15:00.579Z,90
2022-12-08T02:16:59.032Z,90
2022-12-08T02:19:28.866Z,90
2022-12-08T02:20:57.558Z,90
2022-12-08T02:23:00.717Z,89
2022-12-08T02:25:00.296Z,89
2022-12-08T02:26:57.560Z,89
2022-12-08T02:28:57.524Z,90
2022-12-08T02:32:57.480Z,89
2022-12-08T02:34:57.518Z,89
2022-12-08T02:38:56.035Z,90
2022-12-08T02:40:54.666Z,90
2022-12-08T02:44:59.511Z,90
2022-12-08T02:47:00.846Z,90
2022-12-08T02:49:00.426Z,90
2022-12-08T02:51:00.015Z,90
2022-12-08T02:52:57.601Z,90
2022-12-08T02:56:57.505Z,90
2022-12-08T02:58:57.635Z,90
2022-12-08T03:02:57.698Z,90
2022-12-08T03:04:57.075Z,90
2022-12-08T03:06:59.603Z,90
2022-12-08T03:08:58.193Z,90
2022-12-08T03:10:57.579Z,90
2022-12-08T03:13:00.464Z,90
2022-12-08T03:14:57.520Z,90
2022-12-08T03:16:57.551Z,90
2022-12-08T03:20:59.007Z,90
2022-12-08T03:22:57.572Z,90
2022-12-08T03:25:00.320Z,90
2022-12-08T03:26:57.886Z,90
2022-12-08T03:28:59.193Z,90
2022-12-08T03:31:01.025Z,90
2022-12-08T03:32:57.545Z,91
2022-12-08T03:34:58.931Z,91
2022-12-08T03:37:00.702Z,91
2022-12-08T03:38:56.192Z,91
2022-12-08T03:40:59.107Z,91
2022-12-08T03:43:00.471Z,91
2022-12-08T03:44:58.937Z,90
2022-12-08T03:46:58.617Z,91
2022-12-08T03:49:00.701Z,90
2022-12-08T03:50:57.525Z,90
2022-12-08T03:52:59.382Z,91
2022-12-08T03:55:00.397Z,91
2022-12-08T03:56:59.966Z,91
2022-12-08T03:58:59.144Z,91
2022-12-08T04:01:00.395Z,91
2022-12-08T04:02:57.677Z,91
2022-12-08T04:04:59.047Z,91
2022-12-08T04:08:57.392Z,91
2022-12-08T04:10:58.641Z,91
2022-12-08T04:13:00.709Z,91
2022-12-08T04:14:57.547Z,91
2022-12-08T04:17:00.526Z,91
2022-12-08T04:20:57.497Z,91
2022-12-08T04:22:57.666Z,91
2022-12-08T04:26:57.529Z,91
2022-12-08T04:28:57.372Z,91
2022-12-08T04:32:59.210Z,91
2022-12-08T04:35:00.909Z,91
2022-12-08T04:38:57.480Z,91
2022-12-08T04:40:56.741Z,91
2022-12-08T04:42:59.464Z,91
2022-12-08T04:44:56.028Z,91
2022-12-08T04:46:57.843Z,91
2022-12-08T04:50:59.183Z,91
2022-12-08T04:52:57.495Z,91
2022-12-08T04:55:00.272Z,91
2022-12-08T04:56:55.533Z,91
2022-12-08T04:58:57.619Z,91
2022-12-08T05:02:59.342Z,91
2022-12-08T05:04:57.310Z,91
2022-12-08T05:08:57.580Z,91
2022-12-08T05:10:57.617Z,91
2022-12-08T05:13:00.261Z,91
2022-12-08T05:14:56.898Z,91
2022-12-08T05:16:57.891Z,91
2022-12-08T05:19:00.480Z,91
2022-12-08T05:20:59.129Z,91
2022-12-08T05:23:01.085Z,91
2022-12-08T05:25:00.412Z,91
2022-12-08T05:26:58.550Z,91
2022-12-08T05:28:57.544Z,91
2022-12-08T05:33:01.991Z,92
2022-12-08T05:34:59.501Z,92
2022-12-08T05:38:57.498Z,92
2022-12-08T05:40:56.930Z,91
2022-12-08T05:43:00.389Z,91
2022-12-08T05:44:59.227Z,91
2022-12-08T05:46:57.665Z,91
2022-12-08T05:48:59.714Z,91
2022-12-08T05:50:57.527Z,91
2022-12-08T05:52:57.742Z,91
2022-12-08T05:56:57.152Z,91
2022-12-08T05:58:57.899Z,91
2022-12-08T06:01:00.360Z,91
2022-12-08T06:02:57.744Z,91
2022-12-08T06:05:00.834Z,91
2022-12-08T06:07:00.625Z,91
2022-12-08T06:09:00.685Z,91
2022-12-08T06:10:57.387Z,91
2022-12-08T06:15:00.726Z,91
2022-12-08T06:16:57.318Z,91
2022-12-08T06:19:00.398Z,91
2022-12-08T06:20:58.235Z,91
2022-12-08T06:22:54.745Z,91
2022-12-08T06:25:00.605Z,91
2022-12-08T06:26:57.624Z,91
2022-12-08T06:28:58.001Z,91
2022-12-08T06:32:57.580Z,91
2022-12-08T06:35:00.926Z,91
2022-12-08T06:38:57.502Z,91
2022-12-08T06:40:57.633Z,91
2022-12-08T06:44:59.263Z,91
2022-12-08T06:46:57.170Z,91
2022-12-08T06:50:57.484Z,91
2022-12-08T06:53:05.031Z,91
2022-12-08T06:56:59.526Z,91
2022-12-08T06:58:57.638Z,91
2022-12-08T07:00:59.729Z,91
2022-12-08T07:02:57.536Z,91
2022-12-08T07:05:00.909Z,91
2022-12-08T07:08:59.645Z,91
2022-12-08T07:10:57.821Z,91
2022-12-08T07:14:56.115Z,91
2022-12-08T07:16:57.788Z,91
2022-12-08T07:18:59.766Z,91
2022-12-08T07:21:00.745Z,91
2022-12-08T07:22:57.603Z,91
2022-12-08T07:26:57.752Z,91
2022-12-08T07:28:57.616Z,91
2022-12-08T07:32:57.601Z,91
2022-12-08T07:34:57.485Z,91
2022-12-08T07:36:59.213Z,91
2022-12-08T07:38:58.356Z,91
2022-12-08T07:40:57.729Z,91
2022-12-08T07:43:00.074Z,91
2022-12-08T07:44:57.912Z,91
2022-12-08T07:47:00.855Z,91
2022-12-08T07:50:57.741Z,91
2022-12-08T07:52:57.420Z,91
2022-12-08T07:55:00.398Z,92
2022-12-08T07:56:58.532Z,92
2022-12-08T07:58:57.643Z,91
2022-12-08T08:01:00.557Z,92
2022-12-08T08:02:57.550Z,92
2022-12-08T08:04:58.288Z,92
2022-12-08T08:08:57.980Z,92
2022-12-08T08:10:57.766Z,91
2022-12-08T08:14:57.625Z,91
2022-12-08T08:17:00.727Z,91
2022-12-08T08:19:00.816Z,91
2022-12-08T08:20:58.069Z,91
2022-12-08T08:22:57.715Z,90
2022-12-08T08:26:57.518Z,90
2022-12-08T08:28:59.556Z,91
2022-12-08T08:31:00.646Z,90
2022-12-08T08:32:57.656Z,90
2022-12-08T08:34:58.086Z,90
2022-12-08T08:37:00.031Z,90
2022-12-08T08:38:57.613Z,90
2022-12-08T08:40:57.140Z,90
2022-12-08T08:43:00.566Z,90
2022-12-08T08:44:55.599Z,90
2022-12-08T08:46:57.727Z,90
2022-12-08T08:49:00.293Z,90
2022-12-08T08:50:57.610Z,90
2022-12-08T08:52:57.699Z,90
2022-12-08T08:56:57.766Z,90
2022-12-08T08:58:57.664Z,90
2022-12-08T09:02:57.647Z,90
2022-12-08T09:04:56.514Z,90
2022-12-08T09:07:00.866Z,90
2022-12-08T09:08:57.562Z,90
2022-12-08T09:10:57.256Z,90
2022-12-08T09:14:57.881Z,90
2022-12-08T09:16:57.743Z,90
2022-12-08T09:19:01.164Z,90
2022-12-08T09:20:57.096Z,90
2022-12-08T09:22:57.639Z,90
2022-12-08T09:26:57.677Z,90
2022-12-08T09:28:57.593Z,90
2022-12-08T09:31:00.900Z,90
2022-12-08T09:33:00.893Z,90
2022-12-08T09:35:00.843Z,90
2022-12-08T09:39:01.096Z,90
2022-12-08T09:40:57.663Z,90
2022-12-08T09:44:58.942Z,89
2022-12-08T09:46:55.077Z,89
2022-12-08T09:50:58.828Z,89
2022-12-08T09:52:59.327Z,89
2022-12-08T09:56:59.518Z,89
2022-12-08T09:59:00.578Z,89
2022-12-08T10:01:04.073Z,89
2022-12-08T10:02:57.461Z,89
2022-12-08T10:05:04.029Z,89
2022-12-08T10:08:59.125Z,89
2022-12-08T10:10:59.047Z,89
2022-12-08T10:13:00.624Z,89
2022-12-08T10:14:57.488Z,89
2022-12-08T10:16:54.889Z,89
2022-12-08T10:18:59.408Z,89
2022-12-08T10:20:57.616Z,89
2022-12-08T10:22:57.607Z,88
2022-12-08T10:25:00.480Z,88
2022-12-08T10:27:01.160Z,89
2022-12-08T10:28:57.673Z,88
2022-12-08T10:31:00.629Z,88
2022-12-08T10:32:57.724Z,88
2022-12-08T10:34:57.402Z,89
2022-12-08T10:37:01.325Z,89
2022-12-08T10:38:57.618Z,89
2022-12-08T10:40:57.637Z,89
2022-12-08T10:43:00.536Z,89
2022-12-08T10:44:57.683Z,89
2022-12-08T10:46:57.955Z,89
2022-12-08T10:49:00.699Z,89
2022-12-08T10:50:57.582Z,89
2022-12-08T10:52:57.731Z,89
2022-12-08T10:56:59.145Z,89
2022-12-08T10:58:57.999Z,89
2022-12-08T11:01:03.998Z,89
2022-12-08T11:02:57.788Z,89
2022-12-08T11:04:57.762Z,89
2022-12-08T11:07:00.862Z,89
2022-12-08T11:08:57.697Z,88
2022-12-08T11:11:00.992Z,88
2022-12-08T11:14:57.694Z,88
2022-12-08T11:16:58.977Z,88
2022-12-08T11:20:58.317Z,88
2022-12-08T11:22:59.330Z,88
2022-12-08T11:25:00.500Z,88
2022-12-08T11:26:57.656Z,87
2022-12-08T11:28:56.285Z,88
2022-12-08T11:30:57.210Z,87
2022-12-08T11:32:57.615Z,87
2022-12-08T11:34:57.915Z,87
2022-12-08T11:37:00.934Z,87
2022-12-08T11:38:57.738Z,87
2022-12-08T11:40:57.008Z,87
2022-12-08T11:44:57.742Z,87
2022-12-08T11:46:59.445Z,87
2022-12-08T11:49:05.823Z,87
2022-12-08T11:51:00.791Z,87
2022-12-08T11:52:57.585Z,87
2022-12-08T11:55:00.537Z,86
2022-12-08T11:56:57.645Z,85
2022-12-08T11:58:58.835Z,85
2022-12-08T12:02:57.744Z,84
2022-12-08T12:04:58.743Z,85
2022-12-08T12:06:59.937Z,85
2022-12-08T12:08:57.996Z,85
2022-12-08T12:11:00.539Z,85
2022-12-08T12:15:00.849Z,84
2022-12-08T12:16:57.696Z,84
2022-12-08T12:20:57.221Z,84
2022-12-08T12:22:59.289Z,84
2022-12-08T12:27:03.928Z,83
2022-12-08T12:28:58.739Z,83
2022-12-08T12:31:00.428Z,83
2022-12-08T12:32:57.725Z,83
2022-12-08T12:34:59.283Z,83
2022-12-08T12:38:57.658Z,83
2022-12-08T12:40:57.288Z,82
2022-12-08T12:43:00.742Z,82
2022-12-08T12:45:00.596Z,82
2022-12-08T12:46:57.570Z,82
2022-12-08T12:50:57.321Z,82
2022-12-08T12:52:58.053Z,82
2022-12-08T12:55:00.402Z,82
2022-12-08T12:57:01.400Z,82
2022-12-08T12:58:57.761Z,82
2022-12-08T13:02:59.296Z,82
2022-12-08T13:04:57.644Z,82
2022-12-08T13:09:00.514Z,81
2022-12-08T13:10:57.010Z,81
2022-12-08T13:14:58.801Z,82
2022-12-08T13:16:57.771Z,82
2022-12-08T13:19:00.421Z,82
2022-12-08T13:20:59.584Z,82
2022-12-08T13:27:03.763Z,82
2022-12-08T13:28:57.793Z,83
2022-12-08T13:31:00.887Z,83
2022-12-08T13:33:17.524Z,83
2022-12-08T13:34:57.730Z,84
2022-12-08T13:38:57.893Z,84
2022-12-08T13:41:00.676Z,84
2022-12-08T13:43:00.829Z,84
2022-12-08T13:45:21.707Z,84
2022-12-08T13:56:24.568Z,84
2022-12-08T13:57:07.056Z,85
2022-12-08T13:58:57.757Z,85
2022-12-08T14:02:57.775Z,85
2022-12-08T14:05:18.908Z,85
2022-12-08T14:07:04.087Z,85
2022-12-08T14:09:05.241Z,85
2022-12-08T14:10:57.347Z,85
2022-12-08T14:15:04.319Z,85
2022-12-08T14:17:03.859Z,85
2022-12-08T14:19:00.073Z,85
2022-12-08T14:21:19.769Z,85
2022-12-08T14:22:54.918Z,85
2022-12-08T14:26:58.285Z,85
2022-12-08T14:28:56.325Z,85
2022-12-08T14:31:00.096Z,85
2022-12-08T14:32:56.252Z,85
2022-12-08T14:34:59.726Z,85
2022-12-08T14:38:56.217Z,86
2022-12-08T14:40:57.796Z,86
2022-12-08T14:43:01.097Z,86
2022-12-08T14:44:59.592Z,85
2022-12-08T14:47:05.278Z,85
2022-12-08T14:49:00.975Z,86
2022-12-08T14:50:57.710Z,86
2022-12-08T14:52:57.845Z,86
2022-12-08T14:55:01.194Z,86
2022-12-08T14:57:01.169Z,86
2022-12-08T14:58:57.874Z,86
2022-12-08T15:02:58.452Z,86
2022-12-08T15:04:58.769Z,86
2022-12-08T15:09:01.111Z,86
2022-12-08T15:11:01.067Z,86
2022-12-08T15:13:00.784Z,86
2022-12-08T15:14:57.723Z,86
2022-12-08T15:16:57.762Z,86
2022-12-08T15:20:57.389Z,87
2022-12-08T15:22:57.897Z,87
2022-12-08T15:25:00.931Z,87
2022-12-08T15:26:57.711Z,87
2022-12-08T15:28:59.458Z,87
2022-12-08T15:31:00.918Z,87
2022-12-08T15:33:01.296Z,87
2022-12-08T15:34:57.621Z,87
2022-12-08T15:38:56.139Z,87
2022-12-08T15:40:57.468Z,87
2022-12-08T15:44:57.741Z,87
2022-12-08T15:46:57.793Z,87
2022-12-08T15:49:00.715Z,88
2022-12-08T15:51:01.090Z,88
2022-12-08T15:52:57.595Z,88
2022-12-08T15:55:00.626Z,88
2022-12-08T15:57:18.916Z,88
2022-12-08T15:58:58.260Z,88
2022-12-08T16:05:40.786Z,88
2022-12-08T16:09:10.989Z,88
2022-12-08T16:11:41.142Z,88
2022-12-08T16:15:49.874Z,88
2022-12-08T16:16:57.744Z,88
2022-12-08T16:21:09.523Z,88
2022-12-08T16:23:07.851Z,88
2022-12-08T16:28:57.579Z,89
2022-12-08T16:31:00.755Z,89
2022-12-08T16:33:00.732Z,89
2022-12-08T16:34:57.825Z,89
2022-12-08T16:39:00.621Z,89
2022-12-08T16:40:57.316Z,89
2022-12-08T16:43:00.831Z,89
2022-12-08T16:45:01.073Z,89
2022-12-08T16:46:57.840Z,89
2022-12-08T16:49:00.689Z,89
2022-12-08T16:51:00.103Z,89
2022-12-08T16:52:57.342Z,89
2022-12-08T16:54:59.432Z,90
2022-12-08T16:56:57.727Z,90
2022-12-08T16:58:58.531Z,90
2022-12-08T17:03:04.438Z,90
2022-12-08T17:04:59.991Z,90
2022-12-08T17:09:00.859Z,90
2022-12-08T17:10:57.819Z,90
2022-12-08T17:13:00.522Z,90
2022-12-08T17:14:58.047Z,90
2022-12-08T17:16:57.764Z,90
2022-12-08T17:19:00.727Z,90
2022-12-08T17:21:00.192Z,90
2022-12-08T17:22:57.800Z,90
2022-12-08T17:26:57.773Z,90
2022-12-08T17:29:00.805Z,90
2022-12-08T17:32:57.787Z,90
2022-12-08T17:34:57.814Z,90
2022-12-08T17:36:59.474Z,90
2022-12-08T17:39:01.227Z,90
2022-12-08T17:40:58.709Z,90
2022-12-08T17:44:57.794Z,91
2022-12-08T17:46:59.325Z,91
2022-12-08T17:52:09.274Z,91
2022-12-08T17:54:08.400Z,91
2022-12-08T17:58:11.534Z,91
2022-12-08T18:00:11.963Z,91
2022-12-08T18:02:14.510Z,91
2022-12-08T18:04:08.419Z,91
2022-12-08T18:06:06.387Z,91
2022-12-08T18:08:14.035Z,91
2022-12-08T18:10:08.440Z,91
2022-12-08T18:12:08.771Z,91
2022-12-08T18:14:08.359Z,91
2022-12-08T18:16:11.589Z,91
2022-12-08T18:18:08.582Z,91
2022-12-08T18:20:08.398Z,91
2022-12-08T18:22:09.622Z,91
2022-12-08T18:24:08.352Z,91
2022-12-08T18:26:08.220Z,91
2022-12-08T18:28:12.533Z,91
2022-12-08T18:30:09.033Z,91
2022-12-08T18:32:08.385Z,91
2022-12-08T18:34:13.301Z,91
2022-12-08T18:36:10.511Z,91
2022-12-08T18:38:11.942Z,91
2022-12-08T18:40:08.352Z,91
2022-12-08T18:42:08.319Z,91
2022-12-08T18:46:08.294Z,91
2022-12-08T18:48:08.241Z,91
2022-12-08T18:50:08.729Z,91
2022-12-08T18:52:08.400Z,91
2022-12-08T18:54:08.005Z,91
2022-12-08T18:56:05.057Z,91
2022-12-08T18:58:08.247Z,91
2022-12-08T19:00:09.928Z,91
2022-12-08T19:02:10.329Z,91
2022-12-08T19:04:29.497Z,91
2022-12-08T19:06:11.755Z,91
2022-12-08T19:08:15.908Z,91
2022-12-08T19:10:07.442Z,91
2022-12-08T19:12:08.370Z,91
2022-12-08T19:14:08.752Z,91
2022-12-08T19:16:11.610Z,91
2022-12-08T19:18:08.247Z,91
2022-12-08T19:20:09.692Z,91
2022-12-08T19:22:11.872Z,91
2022-12-08T19:24:11.707Z,91
2022-12-08T19:26:08.512Z,91
2022-12-08T19:28:08.295Z,91
2022-12-08T19:30:08.584Z,91
2022-12-08T19:32:08.518Z,91
2022-12-08T19:34:08.781Z,91
2022-12-08T19:36:11.370Z,91
2022-12-08T19:38:09.166Z,91
2022-12-08T19:40:08.507Z,91
2022-12-08T19:42:08.322Z,91
2022-12-08T19:44:08.465Z,91
2022-12-08T19:46:10.872Z,91
2022-12-08T19:48:08.429Z,91
2022-12-08T19:50:07.062Z,91
2022-12-08T19:52:09.255Z,91
2022-12-08T19:54:08.290Z,91
2022-12-08T19:56:06.888Z,91
2022-12-08T19:58:16.178Z,91
2022-12-08T20:00:09.713Z,91
2022-12-08T20:02:10.166Z,91
2022-12-08T20:04:10.483Z,91
2022-12-08T20:06:08.300Z,91
2022-12-08T20:08:08.353Z,91
2022-12-08T20:10:09.031Z,91
2022-12-08T20:12:08.283Z,91
2022-12-08T20:14:08.211Z,91
2022-12-08T20:16:11.623Z,91
2022-12-08T20:18:08.179Z,91
2022-12-08T20:20:08.340Z,91
2022-12-08T20:22:09.149Z,91
2022-12-08T20:24:08.271Z,91
2022-12-08T20:26:08.284Z,91
2022-12-08T20:28:14.472Z,91
2022-12-08T20:30:15.176Z,91
2022-12-08T20:32:08.270Z,91
2022-12-08T20:34:09.273Z,91
2022-12-08T20:36:08.333Z,91
2022-12-08T20:38:05.063Z,91
2022-12-08T20:40:08.356Z,91
2022-12-08T20:42:08.928Z,91
2022-12-08T20:44:10.128Z,91
2022-12-08T20:46:08.307Z,91
2022-12-08T20:50:08.669Z,91
2022-12-08T20:52:08.292Z,91
2022-12-08T20:54:08.591Z,91
2022-12-08T20:56:08.258Z,91
2022-12-08T20:58:08.708Z,91
2022-12-08T21:00:10.128Z,91
2022-12-08T21:02:12.086Z,91
2022-12-08T21:04:08.565Z,91
2022-12-08T21:06:08.326Z,91
2022-12-08T21:08:09.648Z,91
2022-12-08T21:10:08.950Z,91
2022-12-08T21:12:11.886Z,91
2022-12-08T21:14:08.543Z,91
2022-12-08T21:16:12.153Z,91
2022-12-08T21:18:08.372Z,91
2022-12-08T21:20:12.768Z,91
2022-12-08T21:22:09.204Z,91
2022-12-08T21:24:08.485Z,91
2022-12-08T21:26:12.426Z,91
2022-12-08T21:28:09.936Z,91
2022-12-08T21:30:05.593Z,91
2022-12-08T21:32:12.535Z,91
2022-12-08T21:34:15.897Z,91
2022-12-08T21:36:07.530Z,91
2022-12-08T21:38:11.173Z,91
2022-12-08T21:40:07.642Z,91
2022-12-08T21:42:17.451Z,91
2022-12-08T21:44:08.583Z,91
2022-12-08T21:46:05.636Z,91
2022-12-08T21:48:11.618Z,91
2022-12-08T21:50:12.024Z,91
2022-12-08T21:52:12.315Z,91
2022-12-08T21:54:10.912Z,91
2022-12-08T21:56:08.380Z,91
2022-12-08T21:58:10.962Z,91
2022-12-08T22:00:11.700Z,91
2022-12-08T22:02:10.684Z,91
2022-12-08T22:04:08.565Z,91
2022-12-08T22:06:08.483Z,91
2022-12-08T22:08:14.338Z,91
2022-12-08T22:10:09.642Z,91
2022-12-08T22:12:08.425Z,91
2022-12-08T22:14:14.014Z,91
2022-12-08T22:16:10.533Z,91
2022-12-08T22:18:08.047Z,91
2022-12-08T22:20:07.551Z,91
2022-12-08T22:22:14.785Z,91
2022-12-08T22:24:08.628Z,91
2022-12-08T22:26:15.884Z,91
2022-12-08T22:30:08.652Z,91
2022-12-08T22:32:08.275Z,91
2022-12-08T22:34:08.388Z,91
2022-12-08T22:36:11.084Z,91
2022-12-08T22:38:08.321Z,91
2022-12-08T22:40:08.980Z,91
2022-12-08T22:42:08.587Z,91
2022-12-08T22:44:08.317Z,91
2022-12-08T22:46:12.861Z,91
2022-12-08T22:48:16.435Z,91
2022-12-08T22:50:08.785Z,91
2022-12-08T22:52:08.590Z,91
2022-12-08T22:54:08.517Z,91
2022-12-08T22:56:08.421Z,91
2022-12-08T22:58:05.487Z,91
2022-12-08T23:00:11.998Z,91
2022-12-08T23:02:08.725Z,91
2022-12-08T23:04:17.600Z,91
2022-12-08T23:06:12.381Z,91
2022-12-08T23:08:08.400Z,91
2022-12-08T23:10:08.361Z,91
2022-12-08T23:12:08.313Z,91
2022-12-08T23:14:12.918Z,91
2022-12-08T23:16:08.473Z,91
2022-12-08T23:18:08.574Z,91
2022-12-08T23:20:08.586Z,91
2022-12-08T23:22:08.380Z,91
2022-12-08T23:24:08.615Z,91
2022-12-08T23:26:10.943Z,91
2022-12-08T23:28:08.387Z,91
2022-12-08T23:30:08.335Z,91
2022-12-08T23:32:08.441Z,91
2022-12-08T23:34:08.533Z,91
2022-12-08T23:36:09.085Z,91
2022-12-08T23:38:08.699Z,91
2022-12-08T23:40:11.459Z,91
2022-12-08T23:42:11.983Z,91
2022-12-08T23:44:14.562Z,91
2022-12-08T23:46:08.207Z,91
2022-12-08T23:48:05.709Z,91
2022-12-08T23:50:12.356Z,91
2022-12-08T23:52:11.824Z,91
2022-12-08T23:54:08.418Z,91
2022-12-08T23:56:05.406Z,91
2022-12-08T23:58:12.188Z,91
